Time;durP1;ratioP1;P1;durP2;ratioP2;P2;SDS_P1;SDS_P2;PMS_P1;PMS_P2;Temp;Humidity;BMP_temperature;BMP_pressure;BME280_temperature;BME280_humidity;BME280_pressure;Samples;Min_cycle;Max_cycle;Signal;HPM_P1;HPM_P2
2023/01/15 00:01:18;;;;;;;15.77;2.22;;;7.00;99.90;;;;;;5027804;28;20032;-77
2023/01/15 00:03:44;;;;;;;10.18;1.70;;;7.00;99.90;;;;;;5039818;28;20072;-77
2023/01/15 00:06:09;;;;;;;8.57;1.77;;;7.00;99.90;;;;;;5043153;28;20025;-77
2023/01/15 00:08:35;;;;;;;7.65;1.98;;;7.00;99.90;;;;;;5027549;28;20041;-77
2023/01/15 00:11:05;;;;;;;13.48;1.80;;;7.00;99.90;;;;;;5024511;28;20048;-77
2023/01/15 00:13:30;;;;;;;10.48;1.95;;;6.90;99.90;;;;;;5039356;28;20056;-77
2023/01/15 00:16:07;;;;;;;10.93;1.77;;;7.00;99.90;;;;;;5037460;28;20041;-77
2023/01/15 00:18:33;;;;;;;8.63;1.70;;;6.90;99.90;;;;;;5038178;28;20036;-77
2023/01/15 00:21:05;;;;;;;7.88;1.63;;;6.90;99.90;;;;;;5037159;28;20059;-77
2023/01/15 00:29:11;;;;;;;10.30;2.05;;;6.90;99.90;;;;;;5030412;28;20052;-77
2023/01/15 00:31:37;;;;;;;10.48;2.30;;;7.00;99.90;;;;;;5043225;28;20037;-77
2023/01/15 00:34:03;;;;;;;11.50;2.15;;;6.90;99.90;;;;;;5031387;28;20116;-77
2023/01/15 00:36:28;;;;;;;13.95;1.92;;;6.90;99.90;;;;;;5033492;28;20087;-77
2023/01/15 00:38:54;;;;;;;14.70;2.42;;;7.00;99.90;;;;;;5036255;28;20123;-78
2023/01/15 00:41:20;;;;;;;13.52;2.20;;;7.10;99.90;;;;;;5017319;28;20049;-77
2023/01/15 00:43:45;;;;;;;12.50;2.22;;;6.90;99.90;;;;;;5034484;28;20032;-77
2023/01/15 00:46:11;;;;;;;15.77;2.15;;;6.90;99.90;;;;;;5053464;28;20227;-78
2023/01/15 00:48:38;;;;;;;12.80;2.25;;;6.90;99.90;;;;;;5047570;28;20566;-77
2023/01/15 00:51:04;;;;;;;15.35;1.90;;;6.90;99.90;;;;;;5037951;28;20540;-77
2023/01/15 00:53:29;;;;;;;9.00;1.92;;;6.90;99.90;;;;;;5047853;28;20037;-77
2023/01/15 00:55:55;;;;;;;12.10;2.20;;;6.90;99.90;;;;;;5043572;28;20377;-78
2023/01/15 00:58:21;;;;;;;9.93;1.73;;;7.40;99.90;;;;;;5044678;28;20033;-77
2023/01/15 01:00:54;;;;;;;12.13;1.90;;;6.90;99.90;;;;;;5040561;28;20048;-77
2023/01/15 01:03:20;;;;;;;4.78;1.50;;;6.90;99.90;;;;;;5040418;28;20040;-77
2023/01/15 01:05:46;;;;;;;12.13;1.90;;;6.80;99.90;;;;;;5024024;28;20071;-76
2023/01/15 01:08:12;;;;;;;13.88;1.92;;;6.90;99.90;;;;;;5034802;28;20041;-77
2023/01/15 01:10:38;;;;;;;11.38;2.10;;;6.80;99.90;;;;;;5029081;28;20072;-77
2023/01/15 01:13:04;;;;;;;13.63;1.85;;;6.90;99.90;;;;;;5028433;28;20506;-77
2023/01/15 01:15:32;;;;;;;15.43;2.10;;;6.90;99.90;;;;;;5026364;28;20030;-77
2023/01/15 01:17:58;;;;;;;10.68;2.03;;;6.90;99.90;;;;;;5025345;28;20050;-77
2023/01/15 01:20:25;;;;;;;15.05;2.22;;;6.80;99.90;;;;;;5031581;28;20036;-77
2023/01/15 01:22:51;;;;;;;12.75;2.22;;;6.80;99.90;;;;;;5042111;28;20076;-77
2023/01/15 01:25:17;;;;;;;13.55;1.90;;;6.90;99.90;;;;;;5032540;28;20087;-77
2023/01/15 01:27:44;;;;;;;12.43;2.20;;;6.80;99.90;;;;;;5027007;28;20076;-77
2023/01/15 01:30:10;;;;;;;12.00;2.25;;;6.80;99.90;;;;;;5050091;28;20043;-77
2023/01/15 01:32:37;;;;;;;13.07;2.05;;;6.90;99.90;;;;;;5023595;28;20064;-77
2023/01/15 01:35:04;;;;;;;12.05;1.98;;;6.80;99.90;;;;;;5033386;28;20072;-76
2023/01/15 01:37:29;;;;;;;9.73;1.98;;;6.90;99.90;;;;;;5033935;28;20041;-77
2023/01/15 01:39:55;;;;;;;13.82;2.22;;;6.80;99.90;;;;;;5029047;28;20460;-77
2023/01/15 01:42:21;;;;;;;10.15;2.00;;;6.80;99.90;;;;;;5024791;28;20048;-77
2023/01/15 01:44:50;;;;;;;11.27;2.25;;;6.80;99.90;;;;;;5042404;28;20041;-77
2023/01/15 01:47:25;;;;;;;14.50;2.00;;;6.80;99.90;;;;;;5029099;28;20079;-76
2023/01/15 01:49:55;;;;;;;12.52;2.20;;;6.80;99.90;;;;;;5021996;28;20048;-77
2023/01/15 01:52:27;;;;;;;7.85;1.85;;;6.80;99.90;;;;;;5047531;28;20037;-78
2023/01/15 01:54:54;;;;;;;10.68;2.13;;;6.80;99.90;;;;;;5053949;28;20033;-77
2023/01/15 01:57:21;;;;;;;10.93;2.42;;;6.80;99.90;;;;;;5030748;28;20041;-75
2023/01/15 01:59:47;;;;;;;10.02;1.77;;;6.80;99.90;;;;;;5023597;28;20049;-77
2023/01/15 02:02:14;;;;;;;15.70;2.13;;;6.80;99.90;;;;;;5016288;28;20041;-77
2023/01/15 02:04:40;;;;;;;15.10;2.50;;;6.80;99.90;;;;;;5030886;28;20045;-77
2023/01/15 02:07:06;;;;;;;11.02;1.90;;;6.80;99.90;;;;;;5035324;28;20405;-77
2023/01/15 02:09:31;;;;;;;9.95;1.70;;;6.80;99.90;;;;;;5014714;28;20033;-75
2023/01/15 02:12:09;;;;;;;13.38;1.92;;;6.80;99.90;;;;;;5030826;28;20037;-78
2023/01/15 02:14:49;;;;;;;10.05;1.80;;;6.80;99.90;;;;;;5032105;28;20512;-77
2023/01/15 02:17:20;;;;;;;10.13;1.83;;;6.80;99.90;;;;;;5036556;28;20505;-77
2023/01/15 02:20:09;;;;;;;14.77;2.30;;;6.80;99.90;;;;;;5039753;28;20044;-77
2023/01/15 02:22:56;;;;;;;9.13;1.75;;;6.70;99.90;;;;;;5030980;28;20076;-77
2023/01/15 02:25:25;;;;;;;14.48;2.05;;;6.80;99.90;;;;;;5041391;28;20044;-77
2023/01/15 02:28:26;;;;;;;11.77;2.22;;;6.80;99.90;;;;;;5025043;28;20099;-77
2023/01/15 02:31:08;;;;;;;12.65;2.13;;;6.70;99.90;;;;;;5030758;28;20041;-77
2023/01/15 02:33:55;;;;;;;13.80;1.80;;;7.00;99.90;;;;;;5048067;28;20037;-78
2023/01/15 02:36:23;;;;;;;15.50;2.47;;;6.70;99.90;;;;;;5036167;28;20052;-77
2023/01/15 02:38:52;;;;;;;12.93;2.10;;;6.80;99.90;;;;;;5031364;28;20096;-78
2023/01/15 02:41:21;;;;;;;12.48;2.08;;;6.80;99.90;;;;;;5027881;28;20029;-77
2023/01/15 02:43:51;;;;;;;13.23;2.00;;;6.70;99.90;;;;;;5024263;28;20037;-76
2023/01/15 02:46:20;;;;;;;11.75;2.15;;;6.80;99.90;;;;;;5024038;28;20033;-76
2023/01/15 02:48:51;;;;;;;14.90;2.53;;;6.80;99.90;;;;;;5032778;28;20558;-77
2023/01/15 02:51:22;;;;;;;11.15;2.08;;;6.80;99.90;;;;;;5029936;28;20033;-78
2023/01/15 02:53:52;;;;;;;21.05;2.67;;;6.80;99.90;;;;;;5031504;28;20036;-77
2023/01/15 02:56:21;;;;;;;12.75;2.05;;;6.80;99.90;;;;;;5038949;28;20053;-77
2023/01/15 02:58:52;;;;;;;12.80;2.50;;;6.80;99.90;;;;;;5048617;28;20049;-77
2023/01/15 03:01:37;;;;;;;9.40;2.00;;;6.70;99.90;;;;;;5040544;28;20033;-78
2023/01/15 03:04:12;;;;;;;17.17;2.53;;;6.70;99.90;;;;;;5052077;28;20037;-77
2023/01/15 03:06:50;;;;;;;16.38;2.72;;;6.70;99.90;;;;;;5044638;28;20413;-77
2023/01/15 03:09:16;;;;;;;16.35;2.85;;;6.70;99.90;;;;;;5020375;28;20048;-77
2023/01/15 03:12:00;;;;;;;12.50;2.50;;;6.90;99.90;;;;;;5034393;28;20382;-77
2023/01/15 03:14:37;;;;;;;15.95;2.13;;;7.10;99.90;;;;;;5040180;28;20034;-76
2023/01/15 03:17:16;;;;;;;10.35;2.30;;;6.60;99.90;;;;;;5022338;28;20112;-77
2023/01/15 03:19:55;;;;;;;12.98;2.20;;;6.70;99.90;;;;;;5021321;28;20491;-78
2023/01/15 03:22:32;;;;;;;15.25;2.38;;;6.70;99.90;;;;;;5028253;28;20032;-77
2023/01/15 03:25:33;;;;;;;12.90;2.38;;;6.70;99.90;;;;;;5022824;28;20041;-77
2023/01/15 03:28:02;;;;;;;14.38;2.13;;;6.70;99.90;;;;;;5019044;28;20144;-78
2023/01/15 03:30:27;;;;;;;11.05;2.50;;;6.70;99.90;;;;;;5010223;28;20056;-77
2023/01/15 03:32:54;;;;;;;16.45;2.30;;;6.70;99.90;;;;;;5009993;28;20037;-77
2023/01/15 03:35:51;;;;;;;11.85;2.30;;;6.70;99.90;;;;;;5038922;28;20029;-77
2023/01/15 03:38:19;;;;;;;12.80;2.20;;;6.70;99.90;;;;;;5045334;28;20045;-77
2023/01/15 03:41:20;;;;;;;14.60;2.47;;;6.70;99.90;;;;;;5060973;28;20068;-77
2023/01/15 03:44:16;;;;;;;10.70;2.20;;;6.70;99.90;;;;;;5029534;28;20172;-77
2023/01/15 03:47:12;;;;;;;16.70;2.40;;;6.60;99.90;;;;;;5026617;28;20041;-77
2023/01/15 03:49:59;;;;;;;13.35;2.42;;;6.60;99.90;;;;;;5034069;28;20481;-77
2023/01/15 03:52:29;;;;;;;8.85;1.67;;;6.60;99.90;;;;;;5034797;28;20043;-79
2023/01/15 03:55:23;;;;;;;8.80;2.13;;;6.60;99.90;;;;;;5034074;28;20460;-77
2023/01/15 03:58:13;;;;;;;10.65;2.03;;;6.60;99.90;;;;;;5030090;28;20097;-77
2023/01/15 04:00:49;;;;;;;11.15;1.90;;;6.60;99.90;;;;;;5030863;28;20033;-76
2023/01/15 04:03:16;;;;;;;13.60;2.55;;;6.60;99.90;;;;;;5041239;28;20037;-77
2023/01/15 04:05:42;;;;;;;15.35;2.20;;;6.60;99.90;;;;;;5010577;28;20116;-77
2023/01/15 04:08:09;;;;;;;16.48;2.85;;;6.50;99.90;;;;;;5046721;28;20037;-77
2023/01/15 04:10:34;;;;;;;14.20;2.63;;;6.60;99.90;;;;;;5048624;28;20051;-77
2023/01/15 04:13:04;;;;;;;13.07;2.30;;;6.60;99.90;;;;;;5035302;28;20403;-77
2023/01/15 04:15:30;;;;;;;12.55;2.08;;;6.50;99.90;;;;;;5047584;28;20037;-77
2023/01/15 04:17:56;;;;;;;6.50;1.98;;;6.80;99.90;;;;;;5050729;28;20060;-78
2023/01/15 04:20:21;;;;;;;11.82;1.95;;;6.50;99.90;;;;;;5023178;28;20029;-77
2023/01/15 04:22:47;;;;;;;14.77;2.03;;;6.50;99.90;;;;;;5023433;28;20049;-77
2023/01/15 04:25:16;;;;;;;12.32;2.35;;;7.40;99.90;;;;;;5035190;28;20481;-80
2023/01/15 04:27:41;;;;;;;13.60;2.35;;;6.50;99.90;;;;;;5046950;28;20037;-77
2023/01/15 04:30:07;;;;;;;10.68;2.15;;;6.50;99.90;;;;;;5016091;28;20053;-77
2023/01/15 04:32:33;;;;;;;14.35;2.72;;;6.50;99.90;;;;;;5043857;28;20174;-77
2023/01/15 04:35:02;;;;;;;13.70;2.60;;;6.50;99.90;;;;;;5013796;28;20041;-77
2023/01/15 04:37:27;;;;;;;13.93;1.90;;;6.50;99.90;;;;;;5040507;28;20051;-77
2023/01/15 04:39:53;;;;;;;12.52;2.17;;;6.50;99.90;;;;;;5031559;28;20041;-77
2023/01/15 04:45:03;;;;;;;10.57;2.20;;;6.50;99.90;;;;;;5031558;28;20103;-77
2023/01/15 04:47:29;;;;;;;13.88;2.22;;;6.50;99.90;;;;;;5044217;28;20440;-78
2023/01/15 04:49:55;;;;;;;8.48;1.90;;;6.50;99.90;;;;;;5039277;28;20066;-77
2023/01/15 04:52:21;;;;;;;16.02;2.70;;;6.50;99.90;;;;;;5003267;28;20091;-78
2023/01/15 04:54:46;;;;;;;13.25;3.03;;;6.60;99.90;;;;;;5033435;28;20076;-77
2023/01/15 04:57:12;;;;;;;17.02;2.95;;;6.80;99.90;;;;;;5023702;28;20321;-77
2023/01/15 04:59:37;;;;;;;11.25;2.15;;;6.50;99.90;;;;;;5029508;28;20044;-77
2023/01/15 05:02:03;;;;;;;11.70;2.28;;;6.50;99.90;;;;;;5031657;28;20048;-77
2023/01/15 05:04:29;;;;;;;12.27;2.05;;;6.50;99.90;;;;;;5020180;28;20079;-77
2023/01/15 05:06:55;;;;;;;16.15;2.22;;;6.50;99.90;;;;;;5054169;23;20050;-63
2023/01/15 05:09:20;;;;;;;12.20;2.35;;;6.50;99.90;;;;;;5091492;28;20474;-62
2023/01/15 05:11:46;;;;;;;10.15;1.83;;;6.50;99.90;;;;;;5072740;28;20040;-62
2023/01/15 05:14:12;;;;;;;6.68;2.05;;;6.50;99.90;;;;;;5087335;28;20043;-62
2023/01/15 05:16:37;;;;;;;10.70;2.05;;;6.50;99.90;;;;;;5080926;28;20036;-62
2023/01/15 05:19:06;;;;;;;9.95;1.65;;;6.50;99.90;;;;;;5073500;28;20425;-62
2023/01/15 05:21:35;;;;;;;14.75;2.65;;;6.50;99.90;;;;;;5091260;28;20031;-63
2023/01/15 05:24:03;;;;;;;14.00;2.78;;;6.50;99.90;;;;;;5084881;28;20040;-61
2023/01/15 05:26:31;;;;;;;12.30;1.98;;;6.50;99.90;;;;;;5077751;28;20055;-62
2023/01/15 05:28:59;;;;;;;13.57;1.88;;;6.40;99.90;;;;;;5089980;28;20093;-62
2023/01/15 05:31:25;;;;;;;12.95;2.08;;;6.40;99.90;;;;;;5085971;28;20032;-62
2023/01/15 05:33:53;;;;;;;14.52;2.47;;;6.50;99.90;;;;;;5090228;28;20449;-61
2023/01/15 05:36:22;;;;;;;13.90;2.10;;;6.40;99.90;;;;;;5100395;28;20122;-63
2023/01/15 05:38:47;;;;;;;7.90;1.75;;;6.50;99.90;;;;;;5090131;28;20043;-64
2023/01/15 05:44:05;;;;;;;8.68;1.85;;;6.40;99.90;;;;;;5062820;28;20051;-64
2023/01/15 05:46:32;;;;;;;7.40;1.52;;;6.30;99.90;;;;;;5053048;28;20115;-63
2023/01/15 05:49:00;;;;;;;4.68;1.30;;;6.30;99.90;;;;;;5090508;28;20093;-64
2023/01/15 05:51:25;;;;;;;7.80;1.50;;;6.30;99.90;;;;;;5090785;28;20370;-63
2023/01/15 05:53:51;;;;;;;11.32;2.38;;;6.30;99.90;;;;;;5072416;28;20047;-63
2023/01/15 05:56:16;;;;;;;11.02;2.00;;;6.30;99.90;;;;;;5090068;28;20075;-62
2023/01/15 05:58:42;;;;;;;10.65;2.10;;;6.20;99.90;;;;;;5083222;28;20028;-64
2023/01/15 06:01:09;;;;;;;7.07;1.95;;;6.20;99.90;;;;;;5089096;28;20115;-64
2023/01/15 06:03:35;;;;;;;11.15;2.08;;;6.10;99.90;;;;;;5089598;28;20111;-63
2023/01/15 06:06:02;;;;;;;15.45;2.42;;;6.10;99.90;;;;;;5084680;28;20501;-62
2023/01/15 06:08:28;;;;;;;10.68;2.03;;;6.10;99.90;;;;;;5086525;28;20075;-63
2023/01/15 06:10:53;;;;;;;11.48;1.88;;;6.10;99.90;;;;;;5086640;28;20079;-63
2023/01/15 06:13:19;;;;;;;12.57;2.08;;;6.10;99.90;;;;;;5090591;28;20114;-62
2023/01/15 06:15:44;;;;;;;11.68;1.90;;;6.00;99.90;;;;;;5089983;28;20039;-62
2023/01/15 06:18:11;;;;;;;10.10;2.13;;;6.10;99.90;;;;;;5066671;28;20504;-63
2023/01/15 06:20:38;;;;;;;11.40;2.10;;;6.00;99.90;;;;;;5090587;28;20036;-63
2023/01/15 06:23:04;;;;;;;9.98;2.13;;;6.00;99.90;;;;;;5072437;28;20513;-64
2023/01/15 06:25:34;;;;;;;11.38;2.05;;;6.10;99.90;;;;;;5089617;28;20067;-63
2023/01/15 06:27:59;;;;;;;12.38;2.10;;;6.00;99.90;;;;;;5090103;28;20551;-62
2023/01/15 06:30:25;;;;;;;12.85;2.28;;;6.10;99.90;;;;;;5071979;28;20044;-63
2023/01/15 06:32:51;;;;;;;12.80;2.75;;;6.10;99.90;;;;;;5068364;28;20033;-63
2023/01/15 06:35:16;;;;;;;12.68;2.20;;;6.10;99.90;;;;;;5085620;28;20029;-63
2023/01/15 06:37:42;;;;;;;9.00;1.60;;;6.10;99.90;;;;;;5089175;28;20036;-62
2023/01/15 06:40:09;;;;;;;10.93;2.20;;;6.00;99.90;;;;;;5090207;28;20451;-60
2023/01/15 06:48:03;;;;;;;11.60;1.80;;;6.00;99.90;;;;;;5089492;28;20047;-64
2023/01/15 06:50:28;;;;;;;12.68;2.33;;;6.00;99.90;;;;;;5077961;28;20077;-63
2023/01/15 06:52:54;;;;;;;14.73;2.05;;;5.90;99.90;;;;;;5066198;28;20505;-62
2023/01/15 06:55:22;;;;;;;9.32;2.00;;;5.90;99.90;;;;;;5091205;28;20028;-63
2023/01/15 06:57:47;;;;;;;7.22;1.30;;;6.00;99.90;;;;;;5073611;28;20047;-63
2023/01/15 07:00:13;;;;;;;6.95;1.55;;;6.00;99.90;;;;;;5092889;28;20040;-63
2023/01/15 07:02:40;;;;;;;11.90;1.85;;;6.00;99.90;;;;;;5093548;28;20051;-64
2023/01/15 07:05:07;;;;;;;7.82;1.70;;;6.00;99.90;;;;;;5075057;28;20035;-63
2023/01/15 07:07:33;;;;;;;7.75;1.80;;;6.00;99.90;;;;;;5093130;28;20036;-60
2023/01/15 07:09:58;;;;;;;7.28;1.60;;;6.10;99.90;;;;;;5093108;28;20494;-61
2023/01/15 07:12:24;;;;;;;8.93;1.92;;;5.90;99.90;;;;;;5093268;28;20161;-63
2023/01/15 07:14:50;;;;;;;10.13;1.83;;;5.90;99.90;;;;;;5092956;28;20043;-63
2023/01/15 07:17:16;;;;;;;10.40;1.70;;;5.80;99.90;;;;;;5093134;28;20032;-61
2023/01/15 07:19:42;;;;;;;11.23;1.95;;;5.80;99.90;;;;;;5093346;28;20065;-61
2023/01/15 07:22:09;;;;;;;11.98;1.67;;;5.80;99.90;;;;;;5066948;28;20040;-61
2023/01/15 07:24:34;;;;;;;8.25;1.85;;;5.80;99.90;;;;;;5070000;28;20047;-60
2023/01/15 07:27:00;;;;;;;8.13;1.80;;;5.70;99.90;;;;;;5092329;28;20036;-61
2023/01/15 07:29:26;;;;;;;11.82;1.67;;;5.70;99.90;;;;;;5093311;28;20050;-61
2023/01/15 07:31:52;;;;;;;8.40;1.95;;;5.70;99.90;;;;;;5075100;28;20075;-61
2023/01/15 07:34:18;;;;;;;8.07;1.92;;;5.70;99.90;;;;;;5074816;28;20073;-61
2023/01/15 07:36:43;;;;;;;9.43;1.77;;;5.70;99.90;;;;;;5093028;28;20047;-62
2023/01/15 07:39:10;;;;;;;12.43;1.95;;;5.70;99.90;;;;;;5092367;28;20036;-65
2023/01/15 07:50:22;;;;;;;13.27;1.85;;;5.70;99.90;;;;;;5046936;28;20051;-60
2023/01/15 07:52:48;;;;;;;13.05;1.98;;;5.70;99.90;;;;;;5065223;28;20048;-62
2023/01/15 07:55:14;;;;;;;10.68;1.80;;;5.60;99.90;;;;;;5059857;28;20050;-62
2023/01/15 07:57:41;;;;;;;8.02;1.55;;;5.60;99.90;;;;;;5070500;28;20089;-63
2023/01/15 08:00:15;;;;;;;7.30;1.52;;;5.60;99.90;;;;;;5092420;28;20039;-60
2023/01/15 08:02:40;;;;;;;6.75;1.48;;;5.60;99.90;;;;;;5074216;28;20047;-61
2023/01/15 08:05:08;;;;;;;10.18;1.67;;;5.60;99.90;;;;;;5074273;28;20032;-61
2023/01/15 08:07:38;;;;;;;10.98;1.95;;;5.60;99.90;;;;;;5090004;28;20371;-60
2023/01/15 08:10:04;;;;;;;9.48;2.25;;;5.60;99.90;;;;;;5091797;28;20039;-60
2023/01/15 08:15:13;;;;;;;13.20;1.92;;;5.50;99.90;;;;;;5088056;28;20066;-60
2023/01/15 08:17:47;;;;;;;11.73;2.10;;;5.60;99.90;;;;;;5088947;28;20032;-61
2023/01/15 08:20:18;;;;;;;7.72;1.98;;;5.50;99.90;;;;;;5092727;28;20477;-61
2023/01/15 08:22:45;;;;;;;10.10;1.83;;;5.50;99.90;;;;;;5089103;28;20042;-60
2023/01/15 08:25:13;;;;;;;11.00;1.75;;;5.50;99.90;;;;;;5067977;28;20032;-64
2023/01/15 08:27:39;;;;;;;9.38;1.95;;;5.50;99.90;;;;;;5057176;28;20398;-60
2023/01/15 08:30:08;;;;;;;11.88;2.00;;;5.50;99.90;;;;;;5079245;28;20489;-61
2023/01/15 08:32:33;;;;;;;8.48;1.80;;;5.60;99.90;;;;;;5092829;28;20363;-60
2023/01/15 08:34:59;;;;;;;15.48;1.63;;;5.60;99.90;;;;;;5086756;28;20043;-61
2023/01/15 08:37:25;;;;;;;7.00;1.38;;;5.80;99.90;;;;;;5092059;28;20028;-63
2023/01/15 08:39:51;;;;;;;6.10;1.55;;;5.60;99.90;;;;;;5092186;28;20127;-61
2023/01/15 08:42:19;;;;;;;7.10;1.58;;;5.70;99.90;;;;;;5081981;28;20390;-62
2023/01/15 08:44:45;;;;;;;13.77;2.03;;;5.90;99.90;;;;;;5087896;28;20111;-63
2023/01/15 08:47:10;;;;;;;10.52;1.75;;;5.80;99.90;;;;;;5091325;28;20156;-62
2023/01/15 08:49:37;;;;;;;11.15;1.98;;;5.90;99.90;;;;;;5091588;28;20032;-61
2023/01/15 08:52:03;;;;;;;10.63;1.73;;;5.80;99.90;;;;;;5075604;28;20050;-61
2023/01/15 08:54:29;;;;;;;13.52;1.75;;;5.80;99.90;;;;;;5091228;28;20128;-61
2023/01/15 08:56:54;;;;;;;8.75;1.50;;;5.80;99.90;;;;;;5091286;28;20123;-61
2023/01/15 08:59:20;;;;;;;8.02;1.40;;;5.80;99.90;;;;;;5091316;28;20032;-62
2023/01/15 09:01:45;;;;;;;5.25;1.20;;;5.70;99.90;;;;;;5090940;28;20044;-64
2023/01/15 09:04:17;;;;;;;6.65;1.20;;;5.50;99.90;;;;;;5073309;28;20079;-61
2023/01/15 09:06:44;;;;;;;8.33;1.47;;;5.40;99.90;;;;;;5073984;28;20406;-61
2023/01/15 09:09:10;;;;;;;10.25;1.73;;;5.50;99.90;;;;;;5084790;28;20752;-62
2023/01/15 09:11:39;;;;;;;9.63;1.60;;;5.30;99.90;;;;;;5074942;28;20028;-61
2023/01/15 09:14:06;;;;;;;10.35;1.73;;;5.20;99.90;;;;;;5091309;28;20076;-62
2023/01/15 09:16:32;;;;;;;11.48;1.60;;;5.10;99.90;;;;;;5071931;28;20389;-62
2023/01/15 09:18:57;;;;;;;11.90;1.80;;;5.00;99.90;;;;;;5072273;28;20036;-62
2023/01/15 09:21:23;;;;;;;6.43;1.90;;;4.90;99.90;;;;;;5091000;28;20031;-61
2023/01/15 09:23:49;;;;;;;9.52;2.00;;;4.80;99.90;;;;;;5090665;28;20055;-62
2023/01/15 09:26:35;;;;;;;5.10;1.27;;;4.70;99.90;;;;;;5090983;28;20508;-63
2023/01/15 09:29:02;;;;;;;8.35;1.50;;;4.60;99.90;;;;;;5100191;28;20563;-63
2023/01/15 09:31:27;;;;;;;9.65;2.05;;;4.60;99.90;;;;;;5066720;28;20037;-61
2023/01/15 09:33:53;;;;;;;12.15;1.67;;;4.60;99.90;;;;;;5072295;28;20490;-62
2023/01/15 09:36:26;;;;;;;11.45;1.65;;;4.70;99.90;;;;;;5090348;28;20508;-62
2023/01/15 09:38:53;;;;;;;15.70;2.13;;;4.70;99.90;;;;;;5089392;28;20048;-62
2023/01/15 09:44:07;;;;;;;12.93;2.40;;;4.80;99.90;;;;;;5090186;28;20051;-61
2023/01/15 09:46:56;;;;;;;11.48;2.00;;;4.90;99.90;;;;;;5072560;28;20044;-62
2023/01/15 09:49:48;;;;;;;8.82;1.48;;;4.90;99.90;;;;;;5090437;28;20074;-61
2023/01/15 09:52:28;;;;;;;8.23;1.70;;;5.00;99.90;;;;;;5091002;28;20036;-61
2023/01/15 09:55:16;;;;;;;11.52;1.70;;;5.00;99.90;;;;;;5092970;28;20083;-62
2023/01/15 09:57:45;;;;;;;14.57;2.05;;;5.00;99.90;;;;;;5060555;28;20041;-61
2023/01/15 10:00:20;;;;;;;11.70;1.98;;;5.00;99.90;;;;;;5082511;28;20115;-61
2023/01/15 10:02:51;;;;;;;11.25;2.00;;;5.10;99.90;;;;;;5072252;28;20052;-60
2023/01/15 10:05:29;;;;;;;10.65;1.90;;;5.20;99.90;;;;;;5085324;28;20086;-61
2023/01/15 10:07:58;;;;;;;9.43;2.03;;;5.00;99.90;;;;;;5064664;28;20097;-61
2023/01/15 10:10:32;;;;;;;9.73;1.58;;;5.00;99.90;;;;;;5090346;28;20074;-60
2023/01/15 10:13:07;;;;;;;9.73;1.77;;;5.10;99.90;;;;;;5090085;28;20131;-62
2023/01/15 10:15:44;;;;;;;13.20;1.92;;;5.20;99.90;;;;;;5090141;28;20036;-60
2023/01/15 10:18:19;;;;;;;8.48;1.75;;;5.20;99.90;;;;;;5090113;28;20043;-65
2023/01/15 10:20:45;;;;;;;8.20;1.85;;;5.30;99.90;;;;;;5085338;28;20048;-61
2023/01/15 10:23:24;;;;;;;10.30;2.08;;;5.30;99.90;;;;;;5084654;28;20131;-62
2023/01/15 10:25:54;;;;;;;6.45;1.40;;;5.30;99.90;;;;;;5063751;28;20044;-61
2023/01/15 10:28:28;;;;;;;9.10;1.70;;;5.30;99.90;;;;;;5084595;28;20454;-64
2023/01/15 10:31:00;;;;;;;10.60;2.30;;;5.30;99.90;;;;;;5069591;28;20149;-61
2023/01/15 10:33:56;;;;;;;10.60;1.80;;;5.30;99.90;;;;;;5074022;28;20044;-61
2023/01/15 10:36:38;;;;;;;16.25;2.00;;;5.20;99.90;;;;;;5075482;28;20047;-62
2023/01/15 10:39:48;;;;;;;8.57;1.80;;;5.40;99.90;;;;;;5093442;28;20401;-61
2023/01/15 10:42:22;;;;;;;12.52;2.13;;;5.40;99.90;;;;;;5076802;28;20500;-62
2023/01/15 10:45:01;;;;;;;9.75;1.65;;;5.30;99.90;;;;;;5093715;28;20417;-61
2023/01/15 10:47:35;;;;;;;8.70;1.90;;;5.40;99.90;;;;;;5084832;28;20478;-62
2023/01/15 10:50:12;;;;;;;9.43;2.17;;;5.40;99.90;;;;;;5074502;28;20082;-62
2023/01/15 10:52:40;;;;;;;11.13;1.75;;;5.40;99.90;;;;;;5067554;28;20032;-61
2023/01/15 10:55:17;;;;;;;12.02;2.20;;;5.50;99.90;;;;;;5075423;28;20032;-64
2023/01/15 10:57:52;;;;;;;11.77;2.20;;;5.50;99.90;;;;;;5093451;28;20403;-61
2023/01/15 11:00:19;;;;;;;11.60;2.08;;;5.60;99.90;;;;;;5066636;28;20037;-61
2023/01/15 11:03:13;;;;;;;10.48;2.00;;;5.60;99.90;;;;;;5089708;28;20044;-62
2023/01/15 11:05:39;;;;;;;12.52;1.80;;;5.70;99.90;;;;;;5093227;28;20063;-64
2023/01/15 11:08:12;;;;;;;10.75;1.92;;;5.80;99.90;;;;;;5093387;28;20123;-64
2023/01/15 11:10:39;;;;;;;12.70;1.60;;;5.90;99.90;;;;;;5088330;28;20094;-62
2023/01/15 11:21:30;;;;;;;9.70;1.90;;;6.00;99.90;;;;;;5093028;28;20048;-61
2023/01/15 11:23:58;;;;;;;14.93;3.00;;;6.00;99.90;;;;;;5093474;28;20447;-61
2023/01/15 11:26:30;;;;;;;13.50;2.35;;;6.00;99.90;;;;;;5092774;28;20047;-62
2023/01/15 11:28:58;;;;;;;9.93;1.83;;;6.10;99.90;;;;;;5101657;28;20051;-61
2023/01/15 11:31:35;;;;;;;8.80;2.22;;;6.20;99.90;;;;;;5081386;28;20036;-65
2023/01/15 11:34:04;;;;;;;9.30;1.65;;;6.30;99.90;;;;;;5091877;28;20032;-61
2023/01/15 11:36:31;;;;;;;11.80;1.92;;;6.30;99.90;;;;;;5072946;28;20051;-64
2023/01/15 11:38:58;;;;;;;10.73;1.55;;;6.30;99.90;;;;;;5092669;28;20032;-63
2023/01/15 11:52:45;;;;;;;13.50;1.90;;;6.50;99.90;;;;;;5092379;28;20075;-63
2023/01/15 11:55:18;;;;;;;10.38;1.85;;;6.50;99.90;;;;;;5084003;28;20081;-59
2023/01/15 11:57:44;;;;;;;13.80;2.03;;;6.60;99.90;;;;;;5092531;28;20032;-63
2023/01/15 12:00:24;;;;;;;12.63;1.98;;;6.60;99.90;;;;;;5084531;28;20040;-64
2023/01/15 12:02:59;;;;;;;9.50;1.80;;;6.70;99.90;;;;;;5084516;28;20055;-64
2023/01/15 12:05:28;;;;;;;12.02;1.95;;;6.70;99.90;;;;;;5092188;28;20055;-61
2023/01/15 12:07:57;;;;;;;14.45;1.98;;;6.70;99.90;;;;;;5074141;28;20052;-62
2023/01/15 12:11:03;;;;;;;12.15;1.90;;;6.80;99.90;;;;;;5094645;28;20070;-62
2023/01/15 12:13:52;;;;;;;8.70;1.90;;;6.70;99.90;;;;;;5092336;28;20040;-60
2023/01/15 12:16:50;;;;;;;16.67;2.00;;;6.70;99.90;;;;;;5079811;28;20110;-63
2023/01/15 12:19:37;;;;;;;10.00;1.80;;;6.70;99.90;;;;;;5046964;28;20105;-64
2023/01/15 12:22:18;;;;;;;6.18;1.73;;;6.70;99.90;;;;;;5091732;28;20076;-62
2023/01/15 12:25:14;;;;;;;11.88;2.28;;;6.70;99.90;;;;;;5092067;28;20044;-62
2023/01/15 12:28:00;;;;;;;12.45;2.55;;;6.70;99.90;;;;;;5088329;28;20032;-62
2023/01/15 12:30:57;;;;;;;11.32;2.15;;;6.70;99.90;;;;;;5069640;28;20056;-64
2023/01/15 12:33:28;;;;;;;11.32;1.80;;;6.70;99.90;;;;;;5091744;28;20447;-60
2023/01/15 12:36:02;;;;;;;12.17;2.37;;;6.70;99.90;;;;;;5092023;28;20036;-61
2023/01/15 12:38:41;;;;;;;7.78;1.83;;;6.70;99.90;;;;;;5090439;28;20448;-62
2023/01/15 12:41:14;;;;;;;8.43;1.73;;;6.70;99.90;;;;;;5091521;28;20028;-61
2023/01/15 12:46:31;;;;;;;10.98;2.85;;;6.60;99.90;;;;;;5091464;28;20043;-61
2023/01/15 12:49:13;;;;;;;9.32;1.67;;;6.60;99.90;;;;;;5074831;28;20094;-61
2023/01/15 12:51:59;;;;;;;8.82;1.60;;;6.60;99.90;;;;;;5092023;28;20150;-61
2023/01/15 12:54:34;;;;;;;13.60;2.30;;;6.50;99.90;;;;;;5089409;28;20028;-60
2023/01/15 12:57:13;;;;;;;7.72;1.98;;;6.60;99.90;;;;;;5064829;28;20040;-63
2023/01/15 12:59:47;;;;;;;11.73;1.63;;;6.50;99.90;;;;;;5064896;28;20051;-61
2023/01/15 13:02:37;;;;;;;15.05;2.10;;;6.40;99.90;;;;;;5091794;28;20048;-61
2023/01/15 13:05:21;;;;;;;11.93;1.67;;;6.30;99.90;;;;;;5068785;28;20445;-61
2023/01/15 13:07:58;;;;;;;11.13;1.73;;;6.20;99.90;;;;;;5066588;28;20040;-63
2023/01/15 13:10:33;;;;;;;9.77;1.90;;;6.10;99.90;;;;;;5062462;28;20040;-61
2023/01/15 13:13:15;;;;;;;12.25;2.38;;;6.00;99.90;;;;;;5066207;28;20040;-63
2023/01/15 13:16:12;;;;;;;12.38;2.10;;;6.00;99.90;;;;;;5090029;28;20031;-64
2023/01/15 13:19:04;;;;;;;11.23;2.53;;;6.00;99.90;;;;;;5055297;28;20060;-61
2023/01/15 13:21:32;;;;;;;14.07;2.50;;;6.10;99.90;;;;;;5073022;28;20035;-62
2023/01/15 13:24:32;;;;;;;10.90;2.30;;;6.40;99.90;;;;;;5075360;28;20119;-61
2023/01/15 13:27:09;;;;;;;16.10;2.10;;;6.60;99.90;;;;;;5082069;28;20039;-62
2023/01/15 13:30:01;;;;;;;13.02;2.22;;;6.50;99.90;;;;;;5072457;28;20078;-62
2023/01/15 13:32:41;;;;;;;12.93;2.20;;;6.60;99.90;;;;;;5067894;28;20116;-62
2023/01/15 13:35:28;;;;;;;15.73;2.53;;;6.60;99.90;;;;;;5090676;28;20039;-64
2023/01/15 13:37:57;;;;;;;12.38;2.35;;;6.60;99.90;;;;;;5082942;28;20047;-61
2023/01/15 13:40:31;;;;;;;14.20;2.70;;;6.60;99.90;;;;;;5090727;28;20040;-61
2023/01/15 13:42:57;;;;;;;9.85;2.65;;;6.60;99.90;;;;;;5073817;28;20048;-61
2023/01/15 13:45:41;;;;;;;9.88;2.05;;;6.60;99.90;;;;;;5090362;28;20067;-60
2023/01/15 13:48:19;;;;;;;9.55;2.20;;;6.70;99.90;;;;;;5072574;28;20051;-62
2023/01/15 13:50:53;;;;;;;12.60;2.05;;;6.70;99.90;;;;;;5089901;28;20043;-64
2023/01/15 13:53:29;;;;;;;10.43;2.10;;;6.70;99.90;;;;;;5067955;28;20041;-61
2023/01/15 13:56:01;;;;;;;8.38;2.05;;;6.70;99.90;;;;;;5081071;28;20043;-60
2023/01/15 13:58:29;;;;;;;9.35;2.22;;;6.70;99.90;;;;;;5073984;28;20082;-61
2023/01/15 14:01:16;;;;;;;12.55;2.40;;;6.60;99.90;;;;;;5067099;28;20142;-60
2023/01/15 14:03:59;;;;;;;13.38;2.25;;;6.60;99.90;;;;;;5085698;28;20031;-62
2023/01/15 14:06:47;;;;;;;13.07;2.17;;;6.60;99.90;;;;;;5089732;28;20440;-62